sensor_id;sensor_type;location;lat;lon;timestamp;pressure;altitude;pressure_sealevel;temperature;humidity
5413;BME280;2729;50.056;8.678;2023-04-19T00:00:51;101096.94;;;13.06;100.00
5413;BME280;2729;50.056;8.678;2023-04-19T00:03:17;101092.75;;;12.96;100.00
5413;BME280;2729;50.056;8.678;2023-04-19T00:05:43;101092.75;;;12.96;100.00
5413;BME280;2729;50.056;8.678;2023-04-19T00:08:09;101095.06;;;13.13;100.00
5413;BME280;2729;50.056;8.678;2023-04-19T00:10:35;101085.63;;;13.04;100.00
5413;BME280;2729;50.056;8.678;2023-04-19T00:13:01;101089.31;;;12.94;100.00
5413;BME280;2729;50.056;8.678;2023-04-19T00:15:27;101086.78;;;12.89;100.00
5413;BME280;2729;50.056;8.678;2023-04-19T00:17:53;101082.44;;;12.88;100.00
5413;BME280;2729;50.056;8.678;2023-04-19T00:20:20;101090.19;;;12.95;100.00
5413;BME280;2729;50.056;8.678;2023-04-19T00:22:46;101083.13;;;12.98;100.00
5413;BME280;2729;50.056;8.678;2023-04-19T00:25:12;101083.44;;;12.83;100.00
5413;BME280;2729;50.056;8.678;2023-04-19T00:27:38;101085.22;;;12.81;100.00
5413;BME280;2729;50.056;8.678;2023-04-19T00:30:13;101083.63;;;12.74;100.00
5413;BME280;2729;50.056;8.678;2023-04-19T00:32:39;101075.66;;;12.80;100.00
5413;BME280;2729;50.056;8.678;2023-04-19T00:35:05;101074.31;;;12.61;100.00
5413;BME280;2729;50.056;8.678;2023-04-19T00:37:31;101078.28;;;12.80;100.00
5413;BME280;2729;50.056;8.678;2023-04-19T00:39:57;101078.97;;;12.88;100.00
5413;BME280;2729;50.056;8.678;2023-04-19T00:42:25;101077.91;;;12.97;100.00
5413;BME280;2729;50.056;8.678;2023-04-19T00:44:51;101070.06;;;12.95;100.00
5413;BME280;2729;50.056;8.678;2023-04-19T00:47:17;101076.03;;;12.62;100.00
5413;BME280;2729;50.056;8.678;2023-04-19T00:49:45;101065.16;;;12.80;100.00
5413;BME280;2729;50.056;8.678;2023-04-19T00:52:11;101067.16;;;12.69;100.00
5413;BME280;2729;50.056;8.678;2023-04-19T00:54:38;101071.31;;;12.79;100.00
5413;BME280;2729;50.056;8.678;2023-04-19T00:57:05;101060.63;;;12.88;100.00
5413;BME280;2729;50.056;8.678;2023-04-19T00:59:33;101070.34;;;12.83;100.00
5413;BME280;2729;50.056;8.678;2023-04-19T01:01:59;101067.84;;;12.77;100.00
5413;BME280;2729;50.056;8.678;2023-04-19T01:04:28;101059.66;;;12.92;100.00
5413;BME280;2729;50.056;8.678;2023-04-19T01:06:55;101063.19;;;12.91;100.00
5413;BME280;2729;50.056;8.678;2023-04-19T01:09:21;101059.06;;;12.79;100.00
5413;BME280;2729;50.056;8.678;2023-04-19T01:11:47;101054.94;;;12.68;100.00
5413;BME280;2729;50.056;8.678;2023-04-19T01:14:14;101061.56;;;12.85;100.00
5413;BME280;2729;50.056;8.678;2023-04-19T01:16:40;101057.03;;;12.92;100.00
5413;BME280;2729;50.056;8.678;2023-04-19T01:19:06;101057.09;;;12.91;100.00
5413;BME280;2729;50.056;8.678;2023-04-19T01:21:32;101053.16;;;12.70;100.00
5413;BME280;2729;50.056;8.678;2023-04-19T01:23:58;101057.47;;;12.72;100.00
5413;BME280;2729;50.056;8.678;2023-04-19T01:26:24;101057.00;;;12.53;100.00
5413;BME280;2729;50.056;8.678;2023-04-19T01:28:50;101049.66;;;12.71;100.00
5413;BME280;2729;50.056;8.678;2023-04-19T01:31:16;101045.22;;;12.74;100.00
5413;BME280;2729;50.056;8.678;2023-04-19T01:33:41;101042.41;;;12.82;100.00
5413;BME280;2729;50.056;8.678;2023-04-19T01:36:08;101045.22;;;12.74;100.00
5413;BME280;2729;50.056;8.678;2023-04-19T01:38:34;101038.97;;;12.80;100.00
5413;BME280;2729;50.056;8.678;2023-04-19T01:41:00;101035.81;;;12.64;100.00
5413;BME280;2729;50.056;8.678;2023-04-19T01:43:26;101043.41;;;12.76;100.00
5413;BME280;2729;50.056;8.678;2023-04-19T01:45:52;101033.94;;;12.71;100.00
5413;BME280;2729;50.056;8.678;2023-04-19T01:48:18;101029.47;;;12.76;100.00
5413;BME280;2729;50.056;8.678;2023-04-19T01:50:44;101031.91;;;12.83;100.00
5413;BME280;2729;50.056;8.678;2023-04-19T01:53:10;101031.16;;;12.78;100.00
5413;BME280;2729;50.056;8.678;2023-04-19T01:55:37;101033.19;;;12.64;100.00
5413;BME280;2729;50.056;8.678;2023-04-19T01:58:03;101027.06;;;12.65;100.00
5413;BME280;2729;50.056;8.678;2023-04-19T02:00:29;101029.03;;;12.55;100.00
5413;BME280;2729;50.056;8.678;2023-04-19T02:02:55;101018.28;;;12.68;100.00
5413;BME280;2729;50.056;8.678;2023-04-19T02:05:21;101022.97;;;12.52;100.00
5413;BME280;2729;50.056;8.678;2023-04-19T02:07:47;101027.19;;;12.59;100.00
5413;BME280;2729;50.056;8.678;2023-04-19T02:10:13;101023.81;;;12.54;100.00
5413;BME280;2729;50.056;8.678;2023-04-19T02:12:40;101020.06;;;12.66;100.00
5413;BME280;2729;50.056;8.678;2023-04-19T02:15:07;101018.47;;;12.59;100.00
5413;BME280;2729;50.056;8.678;2023-04-19T02:17:34;101014.25;;;12.53;100.00
5413;BME280;2729;50.056;8.678;2023-04-19T02:20:00;101011.66;;;12.51;100.00
5413;BME280;2729;50.056;8.678;2023-04-19T02:22:26;101011.91;;;12.39;100.00
5413;BME280;2729;50.056;8.678;2023-04-19T02:24:52;101008.25;;;12.46;100.00
5413;BME280;2729;50.056;8.678;2023-04-19T02:27:18;101009.00;;;12.53;100.00
5413;BME280;2729;50.056;8.678;2023-04-19T02:29:44;101003.09;;;12.43;100.00
5413;BME280;2729;50.056;8.678;2023-04-19T02:32:11;101004.13;;;12.36;100.00
5413;BME280;2729;50.056;8.678;2023-04-19T02:34:38;101009.50;;;12.29;100.00
5413;BME280;2729;50.056;8.678;2023-04-19T02:37:04;101006.97;;;12.24;100.00
5413;BME280;2729;50.056;8.678;2023-04-19T02:39:30;101009.38;;;12.35;100.00
5413;BME280;2729;50.056;8.678;2023-04-19T02:41:56;101015.72;;;12.23;100.00
5413;BME280;2729;50.056;8.678;2023-04-19T02:44:22;101011.19;;;12.31;100.00
5413;BME280;2729;50.056;8.678;2023-04-19T02:46:48;101007.06;;;12.19;100.00
5413;BME280;2729;50.056;8.678;2023-04-19T02:49:15;101009.88;;;12.10;100.00
5413;BME280;2729;50.056;8.678;2023-04-19T02:51:42;101009.81;;;12.13;100.00
5413;BME280;2729;50.056;8.678;2023-04-19T02:54:09;101001.38;;;11.99;100.00
5413;BME280;2729;50.056;8.678;2023-04-19T02:56:35;101006.66;;;11.96;100.00
5413;BME280;2729;50.056;8.678;2023-04-19T02:59:02;100999.69;;;11.95;100.00
5413;BME280;2729;50.056;8.678;2023-04-19T03:01:30;101000.19;;;12.14;100.00
5413;BME280;2729;50.056;8.678;2023-04-19T03:03:57;100990.28;;;11.86;100.00
5413;BME280;2729;50.056;8.678;2023-04-19T03:06:23;100995.22;;;12.02;100.00
5413;BME280;2729;50.056;8.678;2023-04-19T03:08:49;100987.41;;;11.99;100.00
5413;BME280;2729;50.056;8.678;2023-04-19T03:11:17;100989.50;;;11.81;100.00
5413;BME280;2729;50.056;8.678;2023-04-19T03:13:43;100986.47;;;12.03;100.00
5413;BME280;2729;50.056;8.678;2023-04-19T03:16:11;100986.44;;;12.04;100.00
5413;BME280;2729;50.056;8.678;2023-04-19T03:18:38;100985.69;;;11.98;100.00
5413;BME280;2729;50.056;8.678;2023-04-19T03:21:04;100987.56;;;11.91;100.00
5413;BME280;2729;50.056;8.678;2023-04-19T03:23:43;100984.88;;;11.94;100.00
5413;BME280;2729;50.056;8.678;2023-04-19T03:26:09;100982.91;;;12.07;100.00
5413;BME280;2729;50.056;8.678;2023-04-19T03:28:40;100981.03;;;12.13;100.00
5413;BME280;2729;50.056;8.678;2023-04-19T03:31:25;100981.13;;;12.09;100.00
5413;BME280;2729;50.056;8.678;2023-04-19T03:33:52;100973.47;;;11.98;100.00
5413;BME280;2729;50.056;8.678;2023-04-19T03:36:21;100975.94;;;12.06;100.00
5413;BME280;2729;50.056;8.678;2023-04-19T03:38:48;100973.00;;;12.22;100.00
5413;BME280;2729;50.056;8.678;2023-04-19T03:41:25;100962.53;;;12.22;100.00
5413;BME280;2729;50.056;8.678;2023-04-19T03:44:00;100965.16;;;12.21;100.00
5413;BME280;2729;50.056;8.678;2023-04-19T03:46:26;100967.25;;;12.04;100.00
5413;BME280;2729;50.056;8.678;2023-04-19T03:48:57;100957.41;;;12.16;100.00
5413;BME280;2729;50.056;8.678;2023-04-19T03:51:23;100951.31;;;12.16;100.00
5413;BME280;2729;50.056;8.678;2023-04-19T03:53:49;100952.53;;;12.00;100.00
5413;BME280;2729;50.056;8.678;2023-04-19T03:56:17;100945.47;;;12.03;100.00
5413;BME280;2729;50.056;8.678;2023-04-19T03:58:43;100956.41;;;12.22;100.00
5413;BME280;2729;50.056;8.678;2023-04-19T04:01:19;100951.94;;;12.27;100.00
5413;BME280;2729;50.056;8.678;2023-04-19T04:03:46;100952.13;;;12.19;100.00
5413;BME280;2729;50.056;8.678;2023-04-19T04:06:12;100958.47;;;12.08;100.00
5413;BME280;2729;50.056;8.678;2023-04-19T04:08:38;100954.25;;;12.01;100.00
5413;BME280;2729;50.056;8.678;2023-04-19T04:11:04;100960.00;;;12.18;100.00
5413;BME280;2729;50.056;8.678;2023-04-19T04:13:30;100967.25;;;12.04;100.00
5413;BME280;2729;50.056;8.678;2023-04-19T04:16:05;100965.34;;;12.12;100.00
5413;BME280;2729;50.056;8.678;2023-04-19T04:18:31;100961.97;;;12.07;100.00
5413;BME280;2729;50.056;8.678;2023-04-19T04:20:57;100960.25;;;12.06;100.00
5413;BME280;2729;50.056;8.678;2023-04-19T04:23:24;100962.25;;;12.35;100.00
5413;BME280;2729;50.056;8.678;2023-04-19T04:26:00;100961.69;;;12.20;100.00
5413;BME280;2729;50.056;8.678;2023-04-19T04:28:35;100964.09;;;12.31;100.00
5413;BME280;2729;50.056;8.678;2023-04-19T04:31:01;100965.25;;;12.16;100.00
5413;BME280;2729;50.056;8.678;2023-04-19T04:33:31;100961.91;;;12.10;100.00
5413;BME280;2729;50.056;8.678;2023-04-19T04:35:58;100968.34;;;12.35;100.00
5413;BME280;2729;50.056;8.678;2023-04-19T04:38:28;100964.75;;;11.99;100.00
5413;BME280;2729;50.056;8.678;2023-04-19T04:40:54;100965.84;;;12.31;100.00
5413;BME280;2729;50.056;8.678;2023-04-19T04:43:24;100964.00;;;12.36;100.00
5413;BME280;2729;50.056;8.678;2023-04-19T04:45:54;100962.59;;;12.19;100.00
5413;BME280;2729;50.056;8.678;2023-04-19T04:48:23;100962.38;;;12.29;100.00
5413;BME280;2729;50.056;8.678;2023-04-19T04:50:49;100961.72;;;12.19;100.00
5413;BME280;2729;50.056;8.678;2023-04-19T04:53:15;100965.00;;;12.29;100.00
5413;BME280;2729;50.056;8.678;2023-04-19T04:55:43;100961.72;;;12.19;100.00
5413;BME280;2729;50.056;8.678;2023-04-19T04:58:11;100960.47;;;12.37;100.00
5413;BME280;2729;50.056;8.678;2023-04-19T05:00:52;100966.66;;;12.33;100.00
5413;BME280;2729;50.056;8.678;2023-04-19T05:03:18;100968.19;;;12.43;100.00
5413;BME280;2729;50.056;8.678;2023-04-19T05:05:50;100960.34;;;12.43;100.00
5413;BME280;2729;50.056;8.678;2023-04-19T05:08:16;100968.31;;;12.37;100.00
5413;BME280;2729;50.056;8.678;2023-04-19T05:10:43;100961.97;;;12.48;100.00
5413;BME280;2729;50.056;8.678;2023-04-19T05:13:09;100953.00;;;12.18;100.00
5413;BME280;2729;50.056;8.678;2023-04-19T05:15:35;100955.34;;;12.32;100.00
5413;BME280;2729;50.056;8.678;2023-04-19T05:18:02;100953.91;;;12.17;100.00
5413;BME280;2729;50.056;8.678;2023-04-19T05:20:29;100950.63;;;12.06;100.00
5413;BME280;2729;50.056;8.678;2023-04-19T05:23:03;100955.97;;;12.43;100.00
5413;BME280;2729;50.056;8.678;2023-04-19T05:25:32;100955.72;;;12.54;100.00
5413;BME280;2729;50.056;8.678;2023-04-19T05:27:58;100946.88;;;12.19;100.00
5413;BME280;2729;50.056;8.678;2023-04-19T05:30:28;100955.59;;;12.20;100.00
5413;BME280;2729;50.056;8.678;2023-04-19T05:32:54;100953.53;;;12.34;100.00
5413;BME280;2729;50.056;8.678;2023-04-19T05:35:20;100950.75;;;12.42;100.00
5413;BME280;2729;50.056;8.678;2023-04-19T05:37:46;100949.94;;;12.40;100.00
5413;BME280;2729;50.056;8.678;2023-04-19T05:40:12;100943.38;;;12.61;100.00
5413;BME280;2729;50.056;8.678;2023-04-19T05:42:38;100944.13;;;12.66;100.00
5413;BME280;2729;50.056;8.678;2023-04-19T05:45:04;100950.06;;;12.74;100.00
5413;BME280;2729;50.056;8.678;2023-04-19T05:47:32;100943.47;;;12.56;100.00
5413;BME280;2729;50.056;8.678;2023-04-19T05:50:20;100944.50;;;12.49;100.00
5413;BME280;2729;50.056;8.678;2023-04-19T05:53:01;100943.56;;;12.51;100.00
5413;BME280;2729;50.056;8.678;2023-04-19T05:55:28;100944.06;;;12.69;100.00
5413;BME280;2729;50.056;8.678;2023-04-19T05:57:55;100938.50;;;12.82;100.00
5413;BME280;2729;50.056;8.678;2023-04-19T06:00:24;100941.94;;;12.84;100.00
5413;BME280;2729;50.056;8.678;2023-04-19T06:02:58;100934.66;;;12.97;100.00
5413;BME280;2729;50.056;8.678;2023-04-19T06:05:24;100932.81;;;13.02;100.00
5413;BME280;2729;50.056;8.678;2023-04-19T06:07:50;100934.56;;;13.02;100.00
5413;BME280;2729;50.056;8.678;2023-04-19T06:10:16;100933.56;;;13.07;100.00
5413;BME280;2729;50.056;8.678;2023-04-19T06:12:42;100931.91;;;12.66;100.00
5413;BME280;2729;50.056;8.678;2023-04-19T06:15:08;100930.72;;;12.79;100.00
5413;BME280;2729;50.056;8.678;2023-04-19T06:17:34;100936.94;;;12.74;100.00
5413;BME280;2729;50.056;8.678;2023-04-19T06:20:00;100939.03;;;12.60;100.00
5413;BME280;2729;50.056;8.678;2023-04-19T06:22:26;100943.91;;;12.75;100.00
5413;BME280;2729;50.056;8.678;2023-04-19T06:24:52;100933.22;;;13.23;100.00
5413;BME280;2729;50.056;8.678;2023-04-19T06:27:18;100935.34;;;13.05;100.00
5413;BME280;2729;50.056;8.678;2023-04-19T06:29:44;100934.78;;;13.30;100.00
5413;BME280;2729;50.056;8.678;2023-04-19T06:32:10;100943.44;;;12.95;100.00
5413;BME280;2729;50.056;8.678;2023-04-19T06:34:36;100940.00;;;12.93;100.00
5413;BME280;2729;50.056;8.678;2023-04-19T06:37:02;100944.13;;;13.04;100.00
5413;BME280;2729;50.056;8.678;2023-04-19T06:39:29;100949.91;;;13.18;100.00
5413;BME280;2729;50.056;8.678;2023-04-19T06:41:55;100944.72;;;13.17;100.00
5413;BME280;2729;50.056;8.678;2023-04-19T06:44:21;100940.25;;;13.21;100.00
5413;BME280;2729;50.056;8.678;2023-04-19T06:46:47;100946.81;;;13.00;100.00
5413;BME280;2729;50.056;8.678;2023-04-19T06:49:13;100946.03;;;12.96;100.00
5413;BME280;2729;50.056;8.678;2023-04-19T06:51:39;100947.41;;;13.12;100.00
5413;BME280;2729;50.056;8.678;2023-04-19T06:54:05;100955.63;;;12.97;100.00
5413;BME280;2729;50.056;8.678;2023-04-19T06:56:44;100935.91;;;13.19;100.00
5413;BME280;2729;50.056;8.678;2023-04-19T06:59:12;100942.31;;;13.06;100.00
5413;BME280;2729;50.056;8.678;2023-04-19T07:01:38;100938.34;;;12.88;100.00
5413;BME280;2729;50.056;8.678;2023-04-19T07:04:06;100936.81;;;13.18;100.00
5413;BME280;2729;50.056;8.678;2023-04-19T07:06:36;100937.31;;;12.96;100.00
5413;BME280;2729;50.056;8.678;2023-04-19T07:09:03;100933.56;;;13.07;100.00
5413;BME280;2729;50.056;8.678;2023-04-19T07:11:30;100930.66;;;13.19;100.00
5413;BME280;2729;50.056;8.678;2023-04-19T07:13:56;100921.94;;;13.19;100.00
5413;BME280;2729;50.056;8.678;2023-04-19T07:16:22;100936.41;;;12.97;100.00
5413;BME280;2729;50.056;8.678;2023-04-19T07:18:48;100934.47;;;13.06;100.00
5413;BME280;2729;50.056;8.678;2023-04-19T07:21:14;100926.00;;;13.31;100.00
5413;BME280;2729;50.056;8.678;2023-04-19T07:23:40;100914.03;;;13.21;100.00
5413;BME280;2729;50.056;8.678;2023-04-19T07:26:06;100920.81;;;12.92;100.00
5413;BME280;2729;50.056;8.678;2023-04-19T07:28:32;100918.44;;;13.20;100.00
5413;BME280;2729;50.056;8.678;2023-04-19T07:30:58;100910.94;;;13.03;100.00
5413;BME280;2729;50.056;8.678;2023-04-19T07:33:26;100906.66;;;13.36;100.00
5413;BME280;2729;50.056;8.678;2023-04-19T07:35:53;100902.06;;;13.44;100.00
5413;BME280;2729;50.056;8.678;2023-04-19T07:38:19;100901.13;;;13.47;100.00
5413;BME280;2729;50.056;8.678;2023-04-19T07:40:45;100902.41;;;13.63;100.00
5413;BME280;2729;50.056;8.678;2023-04-19T07:43:11;100898.16;;;13.59;100.00
5413;BME280;2729;50.056;8.678;2023-04-19T07:45:37;100900.44;;;13.71;100.00
5413;BME280;2729;50.056;8.678;2023-04-19T07:48:03;100891.59;;;13.43;100.00
5413;BME280;2729;50.056;8.678;2023-04-19T07:50:29;100895.06;;;13.76;100.00
5413;BME280;2729;50.056;8.678;2023-04-19T07:52:55;100894.44;;;13.68;100.00
5413;BME280;2729;50.056;8.678;2023-04-19T07:55:21;100887.28;;;13.42;100.00
5413;BME280;2729;50.056;8.678;2023-04-19T07:57:48;100901.56;;;13.63;100.00
5413;BME280;2729;50.056;8.678;2023-04-19T08:00:15;100890.53;;;13.50;100.00
5413;BME280;2729;50.056;8.678;2023-04-19T08:02:45;100888.63;;;13.57;100.00
5413;BME280;2729;50.056;8.678;2023-04-19T08:05:12;100878.94;;;13.26;100.00
5413;BME280;2729;50.056;8.678;2023-04-19T08:07:38;100891.69;;;13.40;100.00
5413;BME280;2729;50.056;8.678;2023-04-19T08:10:05;100888.16;;;13.73;100.00
5413;BME280;2729;50.056;8.678;2023-04-19T08:12:32;100891.03;;;13.32;100.00
5413;BME280;2729;50.056;8.678;2023-04-19T08:14:58;100890.00;;;13.70;100.00
5413;BME280;2729;50.056;8.678;2023-04-19T08:17:25;100877.31;;;14.15;100.00
5413;BME280;2729;50.056;8.678;2023-04-19T08:19:51;100871.88;;;14.21;100.00
5413;BME280;2729;50.056;8.678;2023-04-19T08:22:18;100877.13;;;14.21;100.00
5413;BME280;2729;50.056;8.678;2023-04-19T08:24:44;100885.22;;;13.84;99.20
5413;BME280;2729;50.056;8.678;2023-04-19T08:27:10;100882.69;;;14.10;100.00
5413;BME280;2729;50.056;8.678;2023-04-19T08:29:37;100879.53;;;14.29;99.47
5413;BME280;2729;50.056;8.678;2023-04-19T08:32:06;100876.75;;;14.33;98.98
5413;BME280;2729;50.056;8.678;2023-04-19T08:34:35;100873.56;;;14.24;96.92
5413;BME280;2729;50.056;8.678;2023-04-19T08:37:02;100880.16;;;14.07;96.55
5413;BME280;2729;50.056;8.678;2023-04-19T08:39:28;100888.03;;;14.07;93.04
5413;BME280;2729;50.056;8.678;2023-04-19T08:41:55;100879.47;;;14.30;89.85
5413;BME280;2729;50.056;8.678;2023-04-19T08:44:23;100872.47;;;14.31;91.01
5413;BME280;2729;50.056;8.678;2023-04-19T08:46:50;100875.94;;;14.61;90.19
5413;BME280;2729;50.056;8.678;2023-04-19T08:49:17;100873.50;;;14.81;89.98
5413;BME280;2729;50.056;8.678;2023-04-19T08:51:49;100885.53;;;14.62;92.49
5413;BME280;2729;50.056;8.678;2023-04-19T08:54:16;100872.19;;;14.68;89.32
5413;BME280;2729;50.056;8.678;2023-04-19T08:56:42;100869.25;;;14.51;90.33
5413;BME280;2729;50.056;8.678;2023-04-19T08:59:09;100877.97;;;14.79;86.21
5413;BME280;2729;50.056;8.678;2023-04-19T09:01:35;100862.56;;;14.39;87.10
5413;BME280;2729;50.056;8.678;2023-04-19T09:04:03;100868.44;;;14.48;86.54
5413;BME280;2729;50.056;8.678;2023-04-19T09:06:35;100863.00;;;15.07;85.10
5413;BME280;2729;50.056;8.678;2023-04-19T09:09:15;100851.22;;;14.93;83.87
5413;BME280;2729;50.056;8.678;2023-04-19T09:11:41;100856.44;;;14.94;84.47
5413;BME280;2729;50.056;8.678;2023-04-19T09:14:10;100856.88;;;15.32;81.61
5413;BME280;2729;50.056;8.678;2023-04-19T09:16:37;100849.59;;;15.15;80.55
5413;BME280;2729;50.056;8.678;2023-04-19T09:19:05;100851.16;;;14.94;81.18
5413;BME280;2729;50.056;8.678;2023-04-19T09:21:31;100849.69;;;15.12;81.48
5413;BME280;2729;50.056;8.678;2023-04-19T09:23:58;100841.41;;;15.48;82.10
5413;BME280;2729;50.056;8.678;2023-04-19T09:26:25;100848.06;;;15.08;78.83
5413;BME280;2729;50.056;8.678;2023-04-19T09:28:58;100843.19;;;15.47;82.11
5413;BME280;2729;50.056;8.678;2023-04-19T09:31:26;100831.97;;;15.17;79.04
5413;BME280;2729;50.056;8.678;2023-04-19T09:33:53;100837.94;;;15.47;79.15
5413;BME280;2729;50.056;8.678;2023-04-19T09:36:27;100829.44;;;15.65;75.92
5413;BME280;2729;50.056;8.678;2023-04-19T09:38:53;100833.31;;;16.02;75.19
5413;BME280;2729;50.056;8.678;2023-04-19T09:41:19;100830.09;;;16.39;71.67
5413;BME280;2729;50.056;8.678;2023-04-19T09:43:45;100811.53;;;16.20;70.19
5413;BME280;2729;50.056;8.678;2023-04-19T09:46:34;100826.09;;;15.60;69.93
5413;BME280;2729;50.056;8.678;2023-04-19T09:51:40;100834.22;;;16.01;60.63
5413;BME280;2729;50.056;8.678;2023-04-19T09:54:07;100826.63;;;15.93;59.62
5413;BME280;2729;50.056;8.678;2023-04-19T09:56:35;100825.47;;;16.00;61.12
5413;BME280;2729;50.056;8.678;2023-04-19T09:59:05;100813.69;;;15.87;61.58
5413;BME280;2729;50.056;8.678;2023-04-19T10:01:38;100820.59;;;16.13;60.92
5413;BME280;2729;50.056;8.678;2023-04-19T10:04:06;100824.81;;;16.39;60.54
5413;BME280;2729;50.056;8.678;2023-04-19T10:06:34;100822.41;;;16.11;62.61
5413;BME280;2729;50.056;8.678;2023-04-19T10:09:01;100821.16;;;15.50;57.84
5413;BME280;2729;50.056;8.678;2023-04-19T10:11:32;100809.16;;;15.91;59.36
5413;BME280;2729;50.056;8.678;2023-04-19T10:14:08;100817.63;;;15.99;56.48
5413;BME280;2729;50.056;8.678;2023-04-19T10:16:35;100819.94;;;15.35;55.70
5413;BME280;2729;50.056;8.678;2023-04-19T10:19:03;100821.78;;;15.08;57.50
5413;BME280;2729;50.056;8.678;2023-04-19T10:21:30;100821.47;;;15.17;57.32
5413;BME280;2729;50.056;8.678;2023-04-19T10:23:58;100814.69;;;15.35;58.17
5413;BME280;2729;50.056;8.678;2023-04-19T10:26:24;100813.34;;;14.98;54.91
5413;BME280;2729;50.056;8.678;2023-04-19T10:28:53;100805.03;;;15.10;56.10
5413;BME280;2729;50.056;8.678;2023-04-19T10:31:19;100817.28;;;15.85;57.13
5413;BME280;2729;50.056;8.678;2023-04-19T10:33:49;100814.06;;;16.00;56.42
5413;BME280;2729;50.056;8.678;2023-04-19T10:36:16;100815.28;;;15.18;55.04
5413;BME280;2729;50.056;8.678;2023-04-19T10:38:47;100808.78;;;15.03;55.40
5413;BME280;2729;50.056;8.678;2023-04-19T10:41:14;100807.25;;;14.98;57.00
5413;BME280;2729;50.056;8.678;2023-04-19T10:44:07;100808.84;;;15.02;55.63
5413;BME280;2729;50.056;8.678;2023-04-19T10:49:04;100803.97;;;15.66;56.63
5413;BME280;2729;50.056;8.678;2023-04-19T10:51:34;100794.06;;;15.48;53.52
5413;BME280;2729;50.056;8.678;2023-04-19T10:54:02;100791.56;;;15.69;52.68
5413;BME280;2729;50.056;8.678;2023-04-19T11:09:24;100778.56;;;15.88;49.98
5413;BME280;2729;50.056;8.678;2023-04-19T11:11:52;100759.69;;;15.99;48.98
5413;BME280;2729;50.056;8.678;2023-04-19T11:14:20;100748.13;;;16.03;48.96
5413;BME280;2729;50.056;8.678;2023-04-19T11:16:46;100751.13;;;15.94;46.97
5413;BME280;2729;50.056;8.678;2023-04-19T11:19:18;100748.59;;;15.69;46.33
5413;BME280;2729;50.056;8.678;2023-04-19T11:21:45;100750.63;;;15.84;45.53
5413;BME280;2729;50.056;8.678;2023-04-19T11:24:12;100755.72;;;15.89;45.03
5413;BME280;2729;50.056;8.678;2023-04-19T11:26:38;100749.91;;;16.02;44.42
5413;BME280;2729;50.056;8.678;2023-04-19T11:29:04;100754.91;;;15.87;45.71
5413;BME280;2729;50.056;8.678;2023-04-19T11:31:31;100739.00;;;15.90;44.33
5413;BME280;2729;50.056;8.678;2023-04-19T11:33:58;100745.22;;;15.65;43.57
5413;BME280;2729;50.056;8.678;2023-04-19T11:36:25;100745.19;;;16.11;45.04
5413;BME280;2729;50.056;8.678;2023-04-19T11:38:52;100731.38;;;15.60;42.09
5413;BME280;2729;50.056;8.678;2023-04-19T11:41:17;100724.63;;;15.98;43.67
5413;BME280;2729;50.056;8.678;2023-04-19T11:43:43;100716.53;;;16.03;42.53
5413;BME280;2729;50.056;8.678;2023-04-19T11:46:12;100722.47;;;16.08;42.82
5413;BME280;2729;50.056;8.678;2023-04-19T11:48:51;100715.09;;;16.38;42.07
5413;BME280;2729;50.056;8.678;2023-04-19T11:51:18;100722.19;;;16.36;40.26
5413;BME280;2729;50.056;8.678;2023-04-19T11:53:44;100690.31;;;16.62;37.60
5413;BME280;2729;50.056;8.678;2023-04-19T11:56:10;100713.28;;;15.96;37.46
5413;BME280;2729;50.056;8.678;2023-04-19T11:58:39;100703.03;;;16.32;39.34
5413;BME280;2729;50.056;8.678;2023-04-19T12:01:17;100702.63;;;16.42;38.53
5413;BME280;2729;50.056;8.678;2023-04-19T12:03:52;100685.00;;;16.64;39.29
5413;BME280;2729;50.056;8.678;2023-04-19T12:06:22;100676.66;;;16.75;36.19
5413;BME280;2729;50.056;8.678;2023-04-19T12:08:50;100678.56;;;16.71;35.89
5413;BME280;2729;50.056;8.678;2023-04-19T12:11:19;100686.34;;;17.13;36.73
5413;BME280;2729;50.056;8.678;2023-04-19T12:13:48;100681.53;;;16.84;36.34
5413;BME280;2729;50.056;8.678;2023-04-19T12:16:14;100659.97;;;17.13;34.59
5413;BME280;2729;50.056;8.678;2023-04-19T12:18:50;100671.72;;;17.06;34.89
5413;BME280;2729;50.056;8.678;2023-04-19T12:21:32;100666.75;;;16.80;34.70
5413;BME280;2729;50.056;8.678;2023-04-19T12:24:00;100646.72;;;16.55;33.39
5413;BME280;2729;50.056;8.678;2023-04-19T12:26:27;100648.00;;;17.44;34.64
5413;BME280;2729;50.056;8.678;2023-04-19T12:28:55;100648.63;;;17.30;35.42
5413;BME280;2729;50.056;8.678;2023-04-19T12:31:21;100656.25;;;17.36;35.21
5413;BME280;2729;50.056;8.678;2023-04-19T12:33:47;100662.25;;;17.21;36.75
5413;BME280;2729;50.056;8.678;2023-04-19T12:36:14;100649.34;;;17.33;35.46
5413;BME280;2729;50.056;8.678;2023-04-19T12:38:40;100646.78;;;17.13;35.37
5413;BME280;2729;50.056;8.678;2023-04-19T12:41:06;100649.06;;;17.21;35.73
5413;BME280;2729;50.056;8.678;2023-04-19T12:43:32;100644.34;;;16.90;34.68
5413;BME280;2729;50.056;8.678;2023-04-19T12:45:59;100644.19;;;17.49;36.73
5413;BME280;2729;50.056;8.678;2023-04-19T12:48:26;100651.25;;;17.11;35.39
5413;BME280;2729;50.056;8.678;2023-04-19T12:50:52;100649.84;;;16.65;35.09
5413;BME280;2729;50.056;8.678;2023-04-19T12:53:18;100649.94;;;16.82;35.61
5413;BME280;2729;50.056;8.678;2023-04-19T12:55:45;100651.16;;;16.75;36.37
5413;BME280;2729;50.056;8.678;2023-04-19T12:58:17;100645.63;;;17.38;35.76
5413;BME280;2729;50.056;8.678;2023-04-19T13:00:43;100647.06;;;17.45;36.12
5413;BME280;2729;50.056;8.678;2023-04-19T13:03:09;100647.03;;;17.82;35.59
5413;BME280;2729;50.056;8.678;2023-04-19T13:05:37;100641.78;;;17.45;36.38
5413;BME280;2729;50.056;8.678;2023-04-19T13:08:04;100641.94;;;17.04;35.86
5413;BME280;2729;50.056;8.678;2023-04-19T13:10:30;100626.09;;;16.85;36.19
5413;BME280;2729;50.056;8.678;2023-04-19T13:12:56;100616.91;;;17.13;35.85
5413;BME280;2729;50.056;8.678;2023-04-19T13:15:24;100621.53;;;17.45;35.70
5413;BME280;2729;50.056;8.678;2023-04-19T13:17:50;100605.28;;;17.17;34.70
5413;BME280;2729;50.056;8.678;2023-04-19T13:20:19;100614.72;;;17.58;34.79
5413;BME280;2729;50.056;8.678;2023-04-19T13:22:45;100613.88;;;17.94;34.65
5413;BME280;2729;50.056;8.678;2023-04-19T13:25:11;100590.19;;;18.10;34.47